Time;durP1;ratioP1;P1;durP2;ratioP2;P2;SDS_P1;SDS_P2;PMS_P1;PMS_P2;Temp;Humidity;BMP_temperature;BMP_pressure;BME280_temperature;BME280_humidity;BME280_pressure;Samples;Min_cycle;Max_cycle;Signal;HPM_P1;HPM_P2
2022/11/10 00:01:58;;;;;;;4.72;1.63;;;10.60;99.90;;;;;;4988356;28;20026;-51
2022/11/10 00:04:23;;;;;;;5.13;1.70;;;10.60;99.90;;;;;;4988408;28;20035;-54
2022/11/10 00:06:49;;;;;;;1.95;1.40;;;10.60;99.90;;;;;;5008231;28;20030;-54
2022/11/10 00:09:14;;;;;;;1.42;1.25;;;10.50;99.90;;;;;;4987820;28;20030;-51
2022/11/10 00:11:41;;;;;;;3.13;1.80;;;10.50;99.90;;;;;;5008052;28;20033;-50
2022/11/10 00:17:01;;;;;;;2.88;1.70;;;10.50;99.90;;;;;;4970101;28;20054;-53
2022/11/10 00:19:31;;;;;;;2.08;1.42;;;10.50;99.90;;;;;;4987457;28;20026;-54
2022/11/10 00:21:56;;;;;;;1.45;1.35;;;10.40;99.90;;;;;;5008197;28;20038;-51
2022/11/10 00:24:23;;;;;;;3.97;1.77;;;10.40;99.90;;;;;;4987530;28;20106;-52
2022/11/10 00:26:49;;;;;;;6.20;1.85;;;10.40;99.90;;;;;;4994803;28;20570;-50
2022/11/10 00:29:14;;;;;;;3.20;1.30;;;10.40;99.90;;;;;;5012566;28;20533;-54
2022/11/10 00:31:40;;;;;;;2.40;1.60;;;10.40;99.90;;;;;;4991745;28;20057;-52
2022/11/10 00:34:09;;;;;;;3.58;1.30;;;10.40;99.90;;;;;;5010536;28;20025;-50
2022/11/10 00:36:35;;;;;;;3.45;1.60;;;10.40;99.90;;;;;;4991080;28;20034;-49
2022/11/10 00:39:00;;;;;;;2.58;1.48;;;10.40;99.90;;;;;;5003752;28;20137;-51
2022/11/10 00:41:26;;;;;;;4.28;1.73;;;10.40;99.90;;;;;;4995499;28;20509;-49
2022/11/10 00:43:51;;;;;;;6.22;1.63;;;10.40;99.90;;;;;;5010324;28;20026;-50
2022/11/10 00:46:17;;;;;;;1.60;1.30;;;10.30;99.90;;;;;;4991371;28;20570;-49
2022/11/10 00:48:42;;;;;;;2.60;1.40;;;10.30;99.90;;;;;;5011583;28;20070;-55
2022/11/10 00:51:23;;;;;;;5.38;1.30;;;10.20;99.90;;;;;;4991320;28;20379;-53
2022/11/10 00:53:49;;;;;;;3.80;1.10;;;10.20;99.90;;;;;;5012225;28;20081;-50
2022/11/10 00:56:15;;;;;;;1.17;0.90;;;10.20;99.90;;;;;;4991150;28;20754;-52
2022/11/10 00:58:40;;;;;;;2.53;1.20;;;10.20;99.90;;;;;;5011494;28;20113;-53
2022/11/10 01:01:06;;;;;;;4.82;1.30;;;10.10;99.90;;;;;;4991186;28;20161;-54
2022/11/10 01:03:32;;;;;;;2.42;1.30;;;10.10;99.90;;;;;;5027268;28;20091;-50
2022/11/10 01:05:58;;;;;;;2.13;1.20;;;10.20;99.90;;;;;;5001542;28;20123;-52
2022/11/10 01:08:23;;;;;;;2.53;1.10;;;10.20;99.90;;;;;;4992827;28;20094;-51
2022/11/10 01:10:49;;;;;;;2.03;1.08;;;10.20;99.90;;;;;;4999741;28;20026;-51
2022/11/10 01:13:14;;;;;;;1.23;1.00;;;10.20;99.90;;;;;;5011052;28;20042;-54
2022/11/10 01:15:41;;;;;;;3.25;1.17;;;10.30;99.90;;;;;;4989608;28;20041;-52
2022/11/10 01:18:07;;;;;;;3.30;1.50;;;10.40;99.90;;;;;;5011177;28;20502;-51
2022/11/10 01:20:34;;;;;;;6.47;1.85;;;10.40;99.90;;;;;;4997685;28;20026;-55
2022/11/10 01:23:00;;;;;;;4.70;1.27;;;10.40;99.90;;;;;;5011588;28;20030;-53
2022/11/10 01:25:25;;;;;;;3.05;1.48;;;10.50;99.90;;;;;;4996673;28;20048;-51
2022/11/10 01:27:51;;;;;;;1.17;0.95;;;10.60;99.90;;;;;;4991413;28;20466;-48
2022/11/10 01:30:17;;;;;;;2.58;1.48;;;10.60;99.90;;;;;;5008974;28;20461;-50
2022/11/10 01:32:43;;;;;;;3.72;2.40;;;10.60;99.90;;;;;;5010345;28;20557;-53
2022/11/10 01:35:09;;;;;;;3.67;2.05;;;10.70;99.90;;;;;;4989118;28;20022;-54
2022/11/10 01:37:35;;;;;;;2.83;1.42;;;10.70;99.90;;;;;;4991823;28;20026;-51
2022/11/10 01:40:00;;;;;;;1.58;1.00;;;10.70;99.90;;;;;;5005977;28;20104;-50
2022/11/10 01:42:37;;;;;;;4.35;1.52;;;10.80;99.90;;;;;;4991738;28;20030;-54
2022/11/10 01:45:21;;;;;;;6.95;1.65;;;10.70;99.90;;;;;;4976500;28;20046;-58
2022/11/10 01:47:47;;;;;;;2.38;1.20;;;10.70;99.90;;;;;;5011295;28;20026;-59
2022/11/10 01:50:13;;;;;;;4.60;1.30;;;10.80;99.90;;;;;;4993085;28;20028;-59
2022/11/10 01:52:40;;;;;;;3.42;1.40;;;10.80;99.90;;;;;;5011216;28;20554;-59
2022/11/10 01:55:06;;;;;;;2.22;1.33;;;10.80;99.90;;;;;;4993278;28;20022;-59
2022/11/10 01:57:32;;;;;;;3.03;1.60;;;10.80;99.90;;;;;;5011157;28;20109;-59
2022/11/10 01:59:58;;;;;;;1.95;1.20;;;10.90;99.90;;;;;;4992365;28;20662;-59
2022/11/10 02:02:33;;;;;;;3.75;1.50;;;10.90;99.90;;;;;;5010949;28;20036;-59
2022/11/10 02:05:02;;;;;;;3.30;1.35;;;11.00;99.90;;;;;;4975147;28;20046;-58
2022/11/10 02:07:30;;;;;;;5.20;1.30;;;11.00;99.90;;;;;;5009672;28;20101;-59
2022/11/10 02:09:56;;;;;;;3.72;1.45;;;11.00;99.90;;;;;;4991698;28;20057;-58
2022/11/10 02:12:35;;;;;;;5.05;1.20;;;11.00;99.90;;;;;;5010816;28;20029;-59
2022/11/10 02:15:03;;;;;;;2.30;1.27;;;11.00;99.90;;;;;;4972689;28;20034;-59
2022/11/10 02:17:28;;;;;;;4.55;1.17;;;11.00;99.90;;;;;;4991414;28;20026;-58
2022/11/10 02:19:58;;;;;;;2.47;1.20;;;11.10;99.90;;;;;;5008008;28;20052;-59
2022/11/10 02:22:24;;;;;;;4.75;1.63;;;11.10;99.90;;;;;;5010593;28;20084;-59
2022/11/10 02:24:49;;;;;;;2.33;1.05;;;11.10;99.90;;;;;;4990870;28;20116;-58
2022/11/10 02:27:15;;;;;;;2.53;1.30;;;11.10;99.90;;;;;;4997730;28;20030;-60
2022/11/10 02:29:40;;;;;;;3.05;1.20;;;11.20;99.90;;;;;;5007819;28;20068;-58
2022/11/10 02:32:06;;;;;;;4.43;1.30;;;11.10;99.90;;;;;;5010571;28;20037;-59
2022/11/10 02:34:31;;;;;;;4.03;1.50;;;11.10;99.90;;;;;;4991190;28;20042;-58
2022/11/10 02:36:57;;;;;;;2.17;1.08;;;11.20;99.90;;;;;;4989429;28;20038;-51
2022/11/10 02:39:22;;;;;;;1.10;0.80;;;11.20;99.90;;;;;;4998476;28;20089;-53
2022/11/10 02:41:47;;;;;;;1.05;0.95;;;11.20;99.90;;;;;;4990380;28;20102;-49
2022/11/10 02:44:13;;;;;;;1.35;0.82;;;11.10;99.90;;;;;;5009597;28;20060;-50
2022/11/10 02:46:39;;;;;;;3.38;1.23;;;11.10;99.90;;;;;;4989278;28;20106;-50
2022/11/10 02:49:04;;;;;;;3.33;1.23;;;11.10;99.90;;;;;;5008896;28;20029;-54
2022/11/10 02:51:30;;;;;;;4.28;1.05;;;11.10;99.90;;;;;;4989302;28;20062;-52
2022/11/10 02:53:55;;;;;;;2.47;1.20;;;11.10;99.90;;;;;;5009141;28;20433;-50
2022/11/10 02:56:21;;;;;;;4.47;1.10;;;11.10;99.90;;;;;;4989001;28;20030;-51
2022/11/10 02:58:46;;;;;;;3.25;1.20;;;11.10;99.90;;;;;;5009057;28;20049;-48
2022/11/10 03:01:12;;;;;;;1.98;1.20;;;11.00;99.90;;;;;;4988859;28;20490;-49
2022/11/10 03:03:37;;;;;;;6.40;1.05;;;11.00;99.90;;;;;;5009064;28;20050;-52
2022/11/10 03:06:03;;;;;;;1.67;0.90;;;11.00;99.90;;;;;;4987691;28;20114;-51
2022/11/10 03:08:28;;;;;;;2.97;1.20;;;11.00;99.90;;;;;;5009016;28;20037;-50
2022/11/10 03:10:55;;;;;;;1.33;0.90;;;11.00;99.90;;;;;;4998803;28;20413;-49
2022/11/10 03:13:21;;;;;;;1.95;1.10;;;11.00;99.90;;;;;;4989012;28;20426;-55
2022/11/10 03:15:47;;;;;;;1.55;1.08;;;11.00;99.90;;;;;;4997792;28;20091;-54
2022/11/10 03:18:13;;;;;;;6.60;2.05;;;11.00;99.90;;;;;;5008696;28;20109;-51
2022/11/10 03:20:39;;;;;;;3.03;1.10;;;11.00;99.90;;;;;;4996518;28;20034;-52
2022/11/10 03:23:05;;;;;;;4.03;1.20;;;11.00;99.90;;;;;;4990183;28;20513;-50
2022/11/10 03:25:31;;;;;;;3.60;1.00;;;11.00;99.90;;;;;;5006715;28;20605;-51
2022/11/10 03:27:56;;;;;;;1.85;1.20;;;11.00;99.90;;;;;;4991036;28;20038;-49
2022/11/10 03:30:22;;;;;;;3.75;1.30;;;11.00;99.90;;;;;;5006629;28;20029;-48
2022/11/10 03:32:48;;;;;;;4.30;1.20;;;11.00;99.90;;;;;;5009421;28;20025;-53
2022/11/10 03:35:13;;;;;;;5.32;1.27;;;11.00;99.90;;;;;;4992720;28;20088;-54
2022/11/10 03:37:41;;;;;;;3.15;1.00;;;11.00;99.90;;;;;;5009389;28;20054;-53
2022/11/10 03:40:07;;;;;;;1.58;1.02;;;11.00;99.90;;;;;;4991914;28;20041;-48
2022/11/10 03:42:33;;;;;;;1.67;1.40;;;11.10;99.90;;;;;;5009135;28;20030;-51
2022/11/10 03:44:59;;;;;;;3.10;1.40;;;11.00;99.90;;;;;;4990799;28;20126;-55
2022/11/10 03:47:24;;;;;;;5.07;2.00;;;11.10;99.90;;;;;;5009021;28;20030;-52
2022/11/10 03:49:50;;;;;;;3.53;1.95;;;11.10;99.90;;;;;;4988124;28;20035;-50
2022/11/10 03:52:15;;;;;;;6.60;2.00;;;11.10;99.90;;;;;;4989545;28;20033;-50
2022/11/10 03:54:41;;;;;;;3.58;1.80;;;11.10;99.90;;;;;;5005020;28;20022;-53
2022/11/10 03:57:07;;;;;;;2.97;1.70;;;11.10;99.90;;;;;;5009107;28;20109;-54
2022/11/10 03:59:32;;;;;;;3.88;1.77;;;11.10;99.90;;;;;;4988179;28;20125;-54
2022/11/10 04:01:58;;;;;;;4.82;1.55;;;11.10;99.90;;;;;;4987019;28;20122;-50
2022/11/10 04:09:58;;;;;;;2.58;1.10;;;11.00;99.90;;;;;;4970635;28;20041;-52
2022/11/10 04:18:19;;;;;;;;;;;10.90;99.90;;;;;;5009498;28;20025;-51
2022/11/10 04:20:40;;;;;;;3.60;1.45;;;10.90;99.90;;;;;;4984167;28;19964;-51
2022/11/10 04:28:33;;;;;;;3.55;1.30;;;10.90;99.90;;;;;;4967321;28;20752;-52
2022/11/10 04:30:59;;;;;;;3.10;1.08;;;10.80;99.90;;;;;;5005489;28;20026;-50
2022/11/10 04:33:24;;;;;;;3.63;1.20;;;10.80;99.90;;;;;;4988126;28;20562;-48
2022/11/10 04:35:50;;;;;;;7.13;1.25;;;10.80;99.90;;;;;;5005877;28;20062;-49
2022/11/10 04:38:15;;;;;;;3.38;1.13;;;10.70;99.90;;;;;;4990556;28;20054;-50
2022/11/10 04:40:41;;;;;;;2.58;1.33;;;10.70;99.90;;;;;;4998297;28;20039;-52
2022/11/10 04:43:06;;;;;;;3.17;1.25;;;10.70;99.90;;;;;;5007614;28;20037;-54
2022/11/10 04:45:32;;;;;;;2.40;1.35;;;10.70;99.90;;;;;;4984634;28;20688;-49
2022/11/10 04:47:58;;;;;;;4.28;1.40;;;10.70;99.90;;;;;;5007573;28;20049;-50
2022/11/10 04:50:23;;;;;;;4.82;1.50;;;10.70;99.90;;;;;;4987458;28;20034;-48
2022/11/10 04:52:49;;;;;;;5.35;1.55;;;10.70;99.90;;;;;;5007703;28;20052;-49
2022/11/10 04:55:15;;;;;;;4.50;1.48;;;10.80;99.90;;;;;;4987660;28;20026;-53
2022/11/10 04:57:41;;;;;;;2.30;1.10;;;10.80;99.90;;;;;;4989086;28;20569;-53
2022/11/10 05:00:08;;;;;;;4.32;1.48;;;10.80;99.90;;;;;;4986664;28;20026;-51
2022/11/10 05:02:33;;;;;;;3.42;1.70;;;10.80;99.90;;;;;;5007752;28;20041;-54
2022/11/10 05:04:59;;;;;;;3.13;1.10;;;10.80;99.90;;;;;;4987461;28;20042;-51
2022/11/10 05:07:24;;;;;;;7.32;1.75;;;10.90;99.90;;;;;;5007625;28;20076;-49
2022/11/10 05:09:50;;;;;;;6.97;1.90;;;10.90;99.90;;;;;;4987372;28;20497;-51
2022/11/10 05:12:15;;;;;;;5.43;1.92;;;10.90;99.90;;;;;;5008994;28;20096;-50
2022/11/10 05:14:41;;;;;;;2.95;1.35;;;10.90;99.90;;;;;;5001072;28;20040;-53
2022/11/10 05:17:06;;;;;;;4.03;1.73;;;11.00;99.90;;;;;;4992649;28;20058;-52
2022/11/10 05:19:32;;;;;;;5.85;1.42;;;10.90;99.90;;;;;;5009134;28;20604;-51
2022/11/10 05:21:57;;;;;;;3.45;1.75;;;10.90;99.90;;;;;;4992685;28;20038;-49
2022/11/10 05:24:23;;;;;;;6.00;1.70;;;10.90;99.90;;;;;;5008797;28;20033;-52
2022/11/10 05:26:48;;;;;;;2.22;1.60;;;10.80;99.90;;;;;;4995562;28;20383;-50
2022/11/10 05:29:13;;;;;;;2.08;1.17;;;10.70;99.90;;;;;;5009580;28;20446;-52
2022/11/10 05:31:39;;;;;;;7.25;1.25;;;10.60;99.90;;;;;;5011532;28;20030;-52
2022/11/10 05:34:04;;;;;;;2.10;1.50;;;10.50;99.90;;;;;;4990379;28;20026;-54
2022/11/10 05:36:30;;;;;;;3.78;1.92;;;10.50;99.90;;;;;;4991656;28;20029;-54
2022/11/10 05:38:55;;;;;;;8.93;1.77;;;10.40;99.90;;;;;;5001716;28;20038;-53
2022/11/10 05:41:21;;;;;;;7.90;1.80;;;10.40;99.90;;;;;;4991549;28;20590;-51
2022/11/10 05:43:47;;;;;;;6.05;1.80;;;10.30;99.90;;;;;;4995077;28;20066;-51
2022/11/10 05:46:13;;;;;;;4.85;1.60;;;10.20;99.90;;;;;;5010496;28;20033;-52
2022/11/10 05:48:38;;;;;;;3.78;1.70;;;10.10;99.90;;;;;;4990363;28;20080;-51
2022/11/10 05:51:04;;;;;;;8.70;1.55;;;10.10;99.90;;;;;;5010309;28;20105;-52
2022/11/10 05:53:30;;;;;;;3.95;1.67;;;10.10;99.90;;;;;;4999652;28;20482;-51
2022/11/10 05:55:55;;;;;;;3.03;1.63;;;10.00;99.90;;;;;;4992005;28;20069;-51
2022/11/10 05:58:21;;;;;;;3.33;1.70;;;10.00;99.90;;;;;;5008223;28;20080;-47
2022/11/10 06:00:46;;;;;;;5.93;2.90;;;10.00;99.90;;;;;;4990597;28;20046;-49
2022/11/10 06:03:14;;;;;;;4.40;2.20;;;10.00;99.90;;;;;;5008039;28;20099;-52
2022/11/10 06:05:40;;;;;;;5.75;2.13;;;10.10;99.90;;;;;;5010920;28;20025;-54
2022/11/10 06:08:06;;;;;;;4.97;1.95;;;10.10;99.90;;;;;;4996196;28;20080;-51
2022/11/10 06:10:33;;;;;;;6.53;2.70;;;10.10;99.90;;;;;;5010502;28;20068;-52
2022/11/10 06:12:58;;;;;;;6.20;1.95;;;10.10;99.90;;;;;;4992850;28;20124;-50
2022/11/10 06:15:24;;;;;;;5.93;1.88;;;10.10;99.90;;;;;;4991367;28;20053;-51
2022/11/10 06:17:50;;;;;;;6.60;2.40;;;10.10;99.90;;;;;;4992443;28;20071;-54
2022/11/10 06:20:17;;;;;;;3.47;1.95;;;10.10;99.90;;;;;;5007825;28;20029;-51
2022/11/10 06:22:43;;;;;;;7.30;1.85;;;10.20;99.90;;;;;;4991928;28;20030;-51
2022/11/10 06:25:10;;;;;;;4.03;1.67;;;10.10;99.90;;;;;;5009671;28;20022;-52
2022/11/10 06:27:35;;;;;;;6.03;2.58;;;10.10;99.90;;;;;;4988174;28;20410;-50
2022/11/10 06:30:01;;;;;;;6.45;1.95;;;10.00;99.90;;;;;;5010194;28;20018;-53
2022/11/10 06:32:27;;;;;;;4.03;1.60;;;10.00;99.90;;;;;;4990017;28;20066;-52
2022/11/10 06:34:52;;;;;;;5.45;1.98;;;9.90;99.90;;;;;;5009929;28;20505;-54
2022/11/10 06:37:18;;;;;;;6.18;1.98;;;9.90;99.90;;;;;;4990918;28;20034;-54
2022/11/10 06:39:43;;;;;;;5.55;2.25;;;9.90;99.90;;;;;;5009643;28;20046;-51
2022/11/10 06:42:09;;;;;;;8.35;2.83;;;9.80;99.90;;;;;;4990682;28;20042;-53
2022/11/10 06:44:34;;;;;;;4.47;2.50;;;9.80;99.90;;;;;;4988917;28;20034;-50
2022/11/10 06:47:00;;;;;;;5.05;2.60;;;9.80;99.90;;;;;;5009059;28;20034;-54
2022/11/10 06:49:25;;;;;;;4.05;2.65;;;9.80;99.90;;;;;;4989034;28;20061;-52
2022/11/10 06:51:51;;;;;;;5.75;2.85;;;9.80;99.90;;;;;;5008946;28;20701;-56
2022/11/10 06:54:17;;;;;;;7.53;3.10;;;9.80;99.90;;;;;;4987449;28;20057;-54
2022/11/10 06:56:42;;;;;;;9.38;3.92;;;9.80;99.90;;;;;;5009031;28;20052;-53
2022/11/10 06:59:08;;;;;;;9.18;4.57;;;9.80;99.90;;;;;;4989282;28;20018;-54
2022/11/10 07:01:33;;;;;;;9.93;4.20;;;9.90;99.90;;;;;;5008679;28;20026;-52
2022/11/10 07:03:58;;;;;;;14.63;5.95;;;9.90;99.90;;;;;;4988488;28;20042;-54
2022/11/10 07:06:24;;;;;;;11.93;5.43;;;10.00;99.90;;;;;;5009033;28;20034;-51
2022/11/10 07:08:50;;;;;;;10.25;4.43;;;10.00;99.90;;;;;;4988643;28;20101;-55
2022/11/10 07:11:15;;;;;;;6.53;3.55;;;10.10;99.90;;;;;;5009018;28;20026;-54
2022/11/10 07:13:41;;;;;;;8.73;3.30;;;10.20;99.90;;;;;;4988570;28;20105;-52
2022/11/10 07:16:08;;;;;;;9.32;3.70;;;10.40;99.90;;;;;;5008907;28;20049;-50
2022/11/10 07:18:34;;;;;;;6.32;2.80;;;10.40;99.90;;;;;;4988448;28;20029;-54
2022/11/10 07:21:06;;;;;;;7.55;2.90;;;10.50;99.90;;;;;;5008907;28;20129;-54
2022/11/10 07:23:32;;;;;;;5.53;2.42;;;10.50;99.90;;;;;;4987854;28;20042;-52
2022/11/10 07:26:01;;;;;;;7.00;2.40;;;10.50;99.90;;;;;;5008857;28;20061;-55
2022/11/10 07:28:27;;;;;;;8.18;2.33;;;10.50;99.90;;;;;;4984516;28;20375;-53
2022/11/10 07:30:53;;;;;;;3.47;2.30;;;10.50;99.90;;;;;;5008816;28;20025;-54
2022/11/10 07:33:19;;;;;;;3.35;2.25;;;10.50;99.90;;;;;;4987998;28;20783;-55
2022/11/10 07:35:55;;;;;;;3.65;2.13;;;10.50;99.90;;;;;;5008415;28;20017;-55
2022/11/10 07:38:21;;;;;;;4.75;1.90;;;10.60;99.90;;;;;;4983551;28;20046;-53
2022/11/10 07:40:51;;;;;;;5.32;2.05;;;10.70;99.90;;;;;;5009309;28;20025;-54
2022/11/10 07:43:18;;;;;;;5.38;2.00;;;10.80;99.90;;;;;;4987609;28;20038;-54
2022/11/10 07:45:43;;;;;;;7.57;2.75;;;10.90;99.90;;;;;;5008706;28;20073;-53
2022/11/10 07:48:09;;;;;;;4.57;2.13;;;11.00;99.90;;;;;;4987969;28;20064;-58
2022/11/10 07:50:34;;;;;;;4.85;1.90;;;11.10;99.90;;;;;;5008523;28;20033;-48
2022/11/10 07:53:06;;;;;;;5.13;1.58;;;11.30;99.90;;;;;;4998370;28;20620;-48
2022/11/10 07:55:32;;;;;;;2.42;2.00;;;11.40;99.90;;;;;;4988319;28;20030;-53
2022/11/10 07:57:57;;;;;;;3.58;1.90;;;11.50;99.90;;;;;;5006262;28;20040;-50
2022/11/10 08:00:23;;;;;;;3.83;2.55;;;11.60;99.90;;;;;;4989767;28;20030;-50
2022/11/10 08:02:49;;;;;;;7.00;2.13;;;11.60;99.90;;;;;;5006213;28;20510;-48
2022/11/10 08:05:15;;;;;;;3.42;1.90;;;11.70;99.90;;;;;;4989413;28;20034;-51
2022/11/10 08:07:41;;;;;;;2.22;1.42;;;11.80;99.90;;;;;;5006334;28;20414;-50
2022/11/10 08:10:07;;;;;;;2.33;1.65;;;12.00;99.90;;;;;;4989706;28;20070;-50
2022/11/10 08:12:33;;;;;;;6.05;2.35;;;12.20;99.90;;;;;;5006068;28;20103;-53
2022/11/10 08:14:58;;;;;;;3.28;1.88;;;12.40;99.90;;;;;;5008868;28;20486;-51
2022/11/10 08:17:24;;;;;;;3.90;1.58;;;12.70;99.90;;;;;;4992937;28;20033;-54
2022/11/10 08:19:49;;;;;;;4.38;2.00;;;12.80;99.90;;;;;;5008680;28;20116;-50
2022/11/10 08:22:14;;;;;;;5.45;2.00;;;12.90;99.90;;;;;;4991810;28;20056;-48
2022/11/10 08:24:40;;;;;;;5.90;1.75;;;13.00;99.90;;;;;;5008530;28;20037;-51
2022/11/10 08:27:05;;;;;;;8.70;1.80;;;13.10;99.90;;;;;;4987215;28;20038;-50
2022/11/10 08:29:31;;;;;;;5.00;1.95;;;13.30;99.90;;;;;;5007815;28;20064;-49
2022/11/10 08:31:56;;;;;;;4.55;1.95;;;13.30;99.90;;;;;;4989063;28;20030;-48
2022/11/10 08:34:22;;;;;;;4.18;1.55;;;13.40;99.90;;;;;;5008548;28;20050;-50
2022/11/10 08:36:50;;;;;;;5.70;1.80;;;13.50;99.90;;;;;;4988135;28;20558;-48
2022/11/10 08:39:15;;;;;;;5.78;2.05;;;13.60;99.90;;;;;;4998595;28;20078;-53
2022/11/10 08:41:41;;;;;;;3.70;1.88;;;13.70;99.90;;;;;;5007779;28;20120;-51
2022/11/10 08:44:06;;;;;;;3.50;1.45;;;13.70;99.90;;;;;;4987059;28;20072;-52
2022/11/10 08:46:32;;;;;;;3.55;2.05;;;13.80;99.90;;;;;;5008425;28;20535;-51
2022/11/10 08:48:57;;;;;;;5.20;1.65;;;13.90;99.90;;;;;;4991483;28;20053;-49
2022/11/10 08:51:23;;;;;;;3.83;1.70;;;14.00;99.90;;;;;;5011614;28;20065;-53
2022/11/10 08:53:48;;;;;;;2.92;1.60;;;14.10;99.90;;;;;;4991571;28;20477;-49
2022/11/10 08:56:13;;;;;;;7.20;1.88;;;14.20;99.90;;;;;;5011574;28;20030;-53
2022/11/10 08:58:39;;;;;;;5.90;2.03;;;14.30;99.90;;;;;;4991210;28;20039;-50
2022/11/10 09:01:08;;;;;;;3.17;1.38;;;14.40;99.90;;;;;;5011324;28;20105;-53
2022/11/10 09:03:34;;;;;;;5.70;1.92;;;14.50;99.90;;;;;;4990963;28;20046;-52
2022/11/10 09:06:00;;;;;;;5.70;2.08;;;14.60;99.90;;;;;;5011146;28;20092;-50
2022/11/10 09:08:25;;;;;;;3.30;1.75;;;14.70;99.90;;;;;;4991243;28;20031;-50
2022/11/10 09:10:51;;;;;;;6.35;1.67;;;14.80;99.90;;;;;;5011296;28;20379;-50
2022/11/10 09:13:17;;;;;;;4.28;1.90;;;14.90;99.90;;;;;;4990813;28;20038;-47
2022/11/10 09:15:43;;;;;;;7.68;2.40;;;15.10;99.90;;;;;;5011402;28;20065;-51
2022/11/10 09:18:11;;;;;;;4.07;2.03;;;15.30;99.90;;;;;;4990632;28;20034;-49
2022/11/10 09:20:37;;;;;;;6.18;2.40;;;15.30;97.90;;;;;;5011433;28;20053;-50
2022/11/10 09:23:05;;;;;;;6.35;2.00;;;15.40;99.90;;;;;;5001019;28;20053;-51
2022/11/10 09:25:31;;;;;;;3.03;1.85;;;15.40;99.90;;;;;;4992363;28;20092;-48
2022/11/10 09:27:56;;;;;;;6.47;2.72;;;15.40;99.80;;;;;;5004002;28;20709;-46
2022/11/10 09:30:22;;;;;;;3.67;2.10;;;15.30;96.60;;;;;;4992482;28;20034;-48
2022/11/10 09:32:55;;;;;;;8.05;2.00;;;15.10;95.60;;;;;;5008944;28;20433;-48
2022/11/10 09:35:22;;;;;;;6.40;2.13;;;15.00;96.70;;;;;;4972584;28;20031;-47
2022/11/10 09:37:47;;;;;;;6.07;2.08;;;14.70;92.40;;;;;;5008646;28;20521;-48
2022/11/10 09:40:30;;;;;;;6.68;2.38;;;14.50;96.30;;;;;;4991987;28;20054;-52
2022/11/10 09:42:58;;;;;;;6.75;2.20;;;14.40;96.60;;;;;;4989850;28;20069;-49
2022/11/10 09:45:31;;;;;;;7.82;1.83;;;14.40;99.10;;;;;;4991554;28;20651;-52
2022/11/10 09:48:14;;;;;;;8.40;2.17;;;14.20;99.80;;;;;;4990372;28;20050;-51
2022/11/10 09:50:52;;;;;;;6.28;2.33;;;14.20;99.90;;;;;;4972112;28;20527;-51
2022/11/10 09:53:42;;;;;;;8.77;2.17;;;14.20;99.90;;;;;;4982816;28;20494;-48
2022/11/10 09:56:15;;;;;;;5.97;2.63;;;14.20;99.90;;;;;;4971526;28;20601;-51
2022/11/10 09:58:43;;;;;;;4.45;1.98;;;14.20;99.90;;;;;;4986077;28;20429;-51
2022/11/10 10:01:46;;;;;;;8.23;1.88;;;14.30;99.90;;;;;;5010951;28;20057;-50
2022/11/10 10:04:33;;;;;;;3.47;1.85;;;14.40;99.00;;;;;;4971011;28;20054;-48
2022/11/10 10:07:13;;;;;;;9.35;2.22;;;14.40;99.90;;;;;;4974480;28;20113;-48
2022/11/10 10:09:59;;;;;;;4.20;1.80;;;14.50;98.30;;;;;;5011059;28;20110;-49
2022/11/10 10:12:44;;;;;;;6.68;2.10;;;14.50;99.00;;;;;;4980913;28;20025;-51
2022/11/10 10:15:28;;;;;;;4.38;1.92;;;14.60;99.00;;;;;;5010818;28;20026;-48
2022/11/10 10:18:06;;;;;;;7.05;2.25;;;14.70;98.10;;;;;;4988583;28;20117;-54
2022/11/10 10:20:59;;;;;;;9.32;2.15;;;14.70;98.40;;;;;;4971496;28;20038;-51
2022/11/10 10:23:33;;;;;;;6.90;1.70;;;14.60;98.80;;;;;;5008350;28;20033;-50
2022/11/10 10:25:59;;;;;;;4.20;1.98;;;14.60;99.40;;;;;;4971850;28;20039;-57
2022/11/10 10:28:32;;;;;;;7.80;2.65;;;14.60;99.20;;;;;;4990640;28;20438;-55
2022/11/10 10:31:15;;;;;;;7.60;1.90;;;14.70;98.80;;;;;;4971307;28;20089;-56
2022/11/10 10:33:41;;;;;;;3.97;1.90;;;14.70;94.40;;;;;;4985395;28;20034;-53
2022/11/10 10:36:32;;;;;;;4.60;1.90;;;14.60;97.40;;;;;;5009410;28;20111;-48
2022/11/10 10:39:09;;;;;;;6.30;1.73;;;14.50;97.70;;;;;;4994477;28;20086;-49
2022/11/10 10:41:35;;;;;;;6.40;2.35;;;14.50;98.20;;;;;;4969842;28;20073;-49
2022/11/10 10:44:10;;;;;;;5.60;2.00;;;14.40;98.10;;;;;;4988685;28;20030;-51
2022/11/10 10:46:46;;;;;;;6.60;2.10;;;14.40;98.00;;;;;;4970997;28;20030;-50
2022/11/10 10:49:19;;;;;;;;;;;14.30;96.00;;;;;;4971314;28;20118;-47
2022/11/10 10:51:46;;;;;;;5.63;2.10;;;14.40;95.30;;;;;;5007050;28;19956;-50
2022/11/10 10:54:22;;;;;;;5.40;2.33;;;14.40;97.40;;;;;;5010093;28;20056;-49
2022/11/10 10:56:48;;;;;;;5.47;2.10;;;14.40;97.20;;;;;;4989488;28;20084;-49
2022/11/10 10:59:20;;;;;;;4.20;1.80;;;14.40;97.50;;;;;;5010059;28;20517;-49
2022/11/10 11:01:51;;;;;;;7.60;2.10;;;14.40;95.70;;;;;;4988603;28;20026;-50
2022/11/10 11:04:34;;;;;;;6.95;2.00;;;14.40;95.90;;;;;;5009652;28;20569;-51
2022/11/10 11:07:17;;;;;;;8.75;1.92;;;14.40;97.30;;;;;;4973699;28;20062;-50
2022/11/10 11:09:43;;;;;;;6.40;1.95;;;14.40;97.80;;;;;;5010327;28;20018;-51
2022/11/10 11:12:24;;;;;;;4.45;1.83;;;14.50;98.00;;;;;;4993900;28;20088;-53
2022/11/10 11:14:50;;;;;;;10.43;1.88;;;14.50;98.30;;;;;;5012377;28;20030;-50
2022/11/10 11:17:21;;;;;;;6.38;2.00;;;14.60;97.20;;;;;;4994617;28;20023;-51
2022/11/10 11:19:51;;;;;;;6.35;2.22;;;14.70;97.90;;;;;;5010774;28;20426;-50
2022/11/10 11:22:38;;;;;;;7.72;1.63;;;14.80;97.60;;;;;;4993154;28;20020;-50
2022/11/10 11:25:26;;;;;;;4.90;1.80;;;14.90;96.80;;;;;;5008684;28;20021;-48
2022/11/10 11:28:16;;;;;;;8.75;2.03;;;14.90;96.60;;;;;;4984421;28;20034;-51
2022/11/10 11:31:08;;;;;;;5.57;1.60;;;15.00;96.70;;;;;;4971068;28;20038;-51
2022/11/10 11:33:51;;;;;;;7.28;2.00;;;15.00;95.70;;;;;;4982196;28;20506;-48
2022/11/10 11:36:38;;;;;;;4.78;1.60;;;15.10;92.90;;;;;;4969037;28;20038;-50
2022/11/10 11:39:42;;;;;;;6.88;1.80;;;15.10;93.10;;;;;;4995163;28;20030;-49
2022/11/10 11:42:41;;;;;;;4.03;1.65;;;15.10;92.10;;;;;;4973145;28;20053;-52
2022/11/10 11:45:18;;;;;;;5.15;1.70;;;15.10;91.40;;;;;;4990109;28;20034;-53
2022/11/10 11:48:06;;;;;;;9.30;1.77;;;15.00;93.30;;;;;;4984365;28;20022;-51
2022/11/10 11:50:56;;;;;;;6.47;1.85;;;15.00;92.10;;;;;;4966849;28;20055;-54
2022/11/10 11:53:21;;;;;;;7.72;1.85;;;14.90;93.80;;;;;;4981449;28;20030;-48
2022/11/10 11:56:15;;;;;;;4.18;1.80;;;14.80;94.20;;;;;;5008234;28;20040;-50
2022/11/10 11:59:08;;;;;;;3.75;1.38;;;14.70;93.20;;;;;;4983982;28;20034;-51
2022/11/10 12:01:44;;;;;;;8.63;1.83;;;14.70;94.70;;;;;;4970130;28;20081;-51
2022/11/10 12:04:18;;;;;;;4.45;1.70;;;14.80;95.00;;;;;;4969980;28;20031;-52
2022/11/10 12:06:52;;;;;;;4.97;1.77;;;14.80;95.30;;;;;;5006439;28;20034;-53
2022/11/10 12:09:45;;;;;;;5.93;1.85;;;14.90;95.30;;;;;;5008960;28;20052;-51
2022/11/10 12:12:36;;;;;;;4.63;1.55;;;14.90;95.20;;;;;;4975210;28;20030;-50
2022/11/10 12:15:31;;;;;;;3.65;1.73;;;15.00;93.40;;;;;;5008931;28;20018;-49
2022/11/10 12:18:12;;;;;;;7.22;2.17;;;15.10;91.10;;;;;;4987680;28;20041;-50
2022/11/10 12:20:53;;;;;;;8.75;2.35;;;15.00;93.10;;;;;;4969318;28;20045;-52
2022/11/10 12:23:58;;;;;;;2.78;1.75;;;15.10;90.90;;;;;;4980383;28;20073;-49
2022/11/10 12:26:44;;;;;;;5.22;1.80;;;15.10;89.10;;;;;;4971826;28;20038;-48
2022/11/10 12:29:28;;;;;;;6.35;1.77;;;15.10;89.60;;;;;;4969847;28;20046;-50
2022/11/10 12:32:01;;;;;;;5.68;1.65;;;15.00;91.60;;;;;;5005041;28;20040;-51
2022/11/10 12:34:41;;;;;;;10.98;2.20;;;15.00;93.00;;;;;;5008620;28;20022;-50
2022/11/10 12:37:25;;;;;;;5.30;1.92;;;15.00;92.40;;;;;;4973742;28;20037;-48
2022/11/10 12:40:01;;;;;;;2.60;1.70;;;14.90;91.90;;;;;;4993953;28;20537;-51
2022/11/10 12:42:29;;;;;;;6.68;2.08;;;14.80;92.50;;;;;;4973453;28;20037;-53
2022/11/10 12:45:17;;;;;;;6.20;1.67;;;14.80;92.50;;;;;;4988784;28;20031;-50
2022/11/10 12:47:45;;;;;;;7.95;1.95;;;14.70;93.20;;;;;;4983575;28;20084;-51
2022/11/10 12:50:31;;;;;;;8.57;1.52;;;14.60;93.30;;;;;;4988966;28;20446;-52
2022/11/10 12:53:00;;;;;;;8.27;1.58;;;14.70;93.30;;;;;;4987362;28;20121;-54
2022/11/10 12:55:41;;;;;;;8.57;1.85;;;14.60;93.50;;;;;;4988946;28;20035;-54
2022/11/10 12:58:12;;;;;;;7.57;1.80;;;14.60;92.30;;;;;;4988661;28;20528;-48
2022/11/10 13:00:58;;;;;;;5.30;1.55;;;14.60;92.50;;;;;;4969261;28;20138;-52
2022/11/10 13:03:27;;;;;;;5.05;1.52;;;14.60;93.30;;;;;;4980911;28;20026;-55
2022/11/10 13:06:04;;;;;;;5.75;1.63;;;14.70;93.80;;;;;;5008056;28;20038;-51
2022/11/10 13:08:41;;;;;;;5.90;1.60;;;14.70;94.20;;;;;;4981770;28;20745;-51
2022/11/10 13:11:19;;;;;;;4.35;1.42;;;14.80;94.30;;;;;;4969150;28;20510;-52
2022/11/10 13:14:00;;;;;;;5.63;1.98;;;14.90;93.80;;;;;;4982508;28;20026;-53
2022/11/10 13:16:46;;;;;;;9.20;1.50;;;14.90;90.80;;;;;;5006462;28;20449;-50
2022/11/10 13:19:32;;;;;;;5.38;1.58;;;14.90;92.10;;;;;;4969032;28;20027;-50
2022/11/10 13:22:00;;;;;;;4.22;1.60;;;14.90;91.80;;;;;;5006207;28;20079;-53